Time;durP1;ratioP1;P1;durP2;ratioP2;P2;SDS_P1;SDS_P2;PMS_P1;PMS_P2;Temp;Humidity;BMP_temperature;BMP_pressure;BME280_temperature;BME280_humidity;BME280_pressure;Samples;Min_cycle;Max_cycle;Signal;HPM_P1;HPM_P2
2021/05/29 00:00:36;;;;;;;20.45;12.45;;;10.50;99.90;;;;;;4952190;28;20126;-80
2021/05/29 00:03:02;;;;;;;17.63;10.95;;;10.50;99.90;;;;;;4951248;28;20069;-80
2021/05/29 00:05:28;;;;;;;19.10;11.85;;;10.50;99.90;;;;;;4939793;28;20239;-80
2021/05/29 00:07:54;;;;;;;19.23;12.38;;;10.50;99.90;;;;;;4972092;28;20043;-80
2021/05/29 00:10:20;;;;;;;18.75;10.63;;;10.50;99.90;;;;;;4990353;28;20089;-79
2021/05/29 00:12:45;;;;;;;18.55;12.32;;;10.50;99.90;;;;;;4958082;28;20041;-80
2021/05/29 00:15:11;;;;;;;20.02;12.98;;;10.60;99.90;;;;;;4990895;28;20054;-80
2021/05/29 00:17:37;;;;;;;21.38;12.65;;;10.60;99.90;;;;;;4953093;28;20125;-79
2021/05/29 00:20:04;;;;;;;21.88;12.38;;;10.60;99.90;;;;;;4978424;28;20042;-79
2021/05/29 00:22:30;;;;;;;20.30;12.50;;;10.70;99.90;;;;;;4977449;28;20050;-79
2021/05/29 00:24:56;;;;;;;18.45;11.57;;;10.70;99.90;;;;;;4960669;28;20465;-80
2021/05/29 00:27:22;;;;;;;23.38;13.60;;;10.70;99.90;;;;;;4969377;28;20098;-79
2021/05/29 00:29:48;;;;;;;18.23;12.95;;;10.70;99.90;;;;;;4980774;28;20042;-79
2021/05/29 00:32:13;;;;;;;25.08;13.20;;;10.80;99.90;;;;;;4967460;28;20038;-78
2021/05/29 00:34:40;;;;;;;23.58;12.90;;;10.80;99.90;;;;;;4987182;28;20046;-80
2021/05/29 00:37:06;;;;;;;20.98;13.07;;;10.80;99.90;;;;;;4983424;28;20809;-81
2021/05/29 00:39:32;;;;;;;20.90;12.50;;;10.80;99.90;;;;;;4948516;28;20043;-78
2021/05/29 00:41:58;;;;;;;25.63;12.38;;;10.80;99.90;;;;;;4961495;28;20050;-78
2021/05/29 00:44:25;;;;;;;21.08;12.75;;;10.80;99.90;;;;;;4948889;29;20043;-79
2021/05/29 00:46:51;;;;;;;20.50;12.10;;;10.80;99.90;;;;;;4973960;28;20042;-78
2021/05/29 00:49:17;;;;;;;18.83;11.75;;;10.90;99.90;;;;;;4943124;28;20400;-79
2021/05/29 00:51:43;;;;;;;21.20;13.15;;;10.90;99.90;;;;;;4985396;28;20070;-78
2021/05/29 00:54:10;;;;;;;20.15;13.88;;;10.90;99.90;;;;;;4964720;28;20154;-78
2021/05/29 00:56:36;;;;;;;23.02;12.98;;;10.90;99.90;;;;;;4955461;28;20047;-78
2021/05/29 00:59:03;;;;;;;21.67;13.45;;;10.90;99.90;;;;;;4950976;28;20533;-80
2021/05/29 01:01:28;;;;;;;17.75;12.98;;;10.90;99.90;;;;;;4955678;28;20049;-79
2021/05/29 01:03:55;;;;;;;20.83;13.52;;;10.80;99.90;;;;;;4990693;28;20114;-79
2021/05/29 01:06:21;;;;;;;20.67;12.88;;;10.80;99.90;;;;;;4957896;28;20426;-79
2021/05/29 01:08:48;;;;;;;20.65;13.18;;;10.80;99.90;;;;;;4978259;28;20038;-79
2021/05/29 01:11:13;;;;;;;21.77;12.77;;;10.80;99.90;;;;;;4973925;28;20480;-81
2021/05/29 01:13:39;;;;;;;23.58;13.20;;;10.80;99.90;;;;;;4991366;28;20042;-81
2021/05/29 01:16:20;;;;;;;19.05;12.10;;;10.80;99.90;;;;;;4977026;28;21082;-81
2021/05/29 01:18:47;;;;;;;25.13;13.63;;;10.80;99.90;;;;;;4978114;28;20045;-81
2021/05/29 01:21:12;;;;;;;21.30;12.85;;;10.80;99.90;;;;;;4954873;28;20036;-80
2021/05/29 01:23:38;;;;;;;18.77;11.40;;;10.80;99.90;;;;;;4951778;28;20066;-81
2021/05/29 01:26:04;;;;;;;22.02;13.00;;;10.80;99.90;;;;;;4955875;28;20043;-81
2021/05/29 01:28:32;;;;;;;23.95;13.85;;;10.80;99.90;;;;;;4958546;28;20043;-81
2021/05/29 01:31:02;;;;;;;22.42;13.77;;;10.70;99.90;;;;;;4953997;28;20478;-79
2021/05/29 01:33:32;;;;;;;17.80;11.75;;;10.80;99.90;;;;;;4964156;28;20418;-80
2021/05/29 01:36:00;;;;;;;21.17;12.82;;;10.80;99.90;;;;;;4971850;28;20489;-80
2021/05/29 01:38:27;;;;;;;20.20;12.48;;;10.80;99.90;;;;;;4966424;28;20046;-81
2021/05/29 01:40:57;;;;;;;22.15;13.63;;;10.80;99.90;;;;;;4966415;28;20039;-81
2021/05/29 01:43:23;;;;;;;20.98;13.57;;;10.90;99.90;;;;;;4971714;28;20393;-81
2021/05/29 01:45:49;;;;;;;19.27;13.35;;;10.80;99.90;;;;;;4973293;28;20125;-79
2021/05/29 01:48:18;;;;;;;20.98;12.68;;;10.70;99.90;;;;;;4951717;28;20474;-81
2021/05/29 01:50:47;;;;;;;21.77;13.98;;;10.80;99.90;;;;;;4967494;28;20043;-81
2021/05/29 01:53:14;;;;;;;23.25;14.35;;;10.70;99.90;;;;;;4954377;28;20043;-80
2021/05/29 01:55:41;;;;;;;22.48;13.85;;;10.70;99.90;;;;;;4961259;28;20043;-79
2021/05/29 01:58:07;;;;;;;20.95;12.70;;;10.70;99.90;;;;;;4969488;28;20043;-79
2021/05/29 02:00:33;;;;;;;25.77;13.45;;;10.70;99.90;;;;;;4966796;28;20040;-79
2021/05/29 02:02:59;;;;;;;24.67;13.02;;;10.80;99.90;;;;;;4955445;28;20042;-81
2021/05/29 02:05:28;;;;;;;24.30;13.77;;;10.80;99.90;;;;;;4968518;28;20059;-80
2021/05/29 02:07:54;;;;;;;27.90;13.77;;;10.70;99.90;;;;;;4972693;28;20035;-79
2021/05/29 02:10:25;;;;;;;23.55;13.40;;;10.90;99.90;;;;;;4970612;28;20041;-79
2021/05/29 02:12:55;;;;;;;26.67;13.82;;;10.70;99.90;;;;;;4958485;28;20035;-79
2021/05/29 02:15:30;;;;;;;19.63;13.38;;;10.80;99.90;;;;;;4953310;28;20477;-79
2021/05/29 02:17:58;;;;;;;19.92;12.20;;;10.80;99.90;;;;;;4967542;28;20051;-81
2021/05/29 02:20:46;;;;;;;21.48;13.93;;;10.70;99.90;;;;;;4953087;28;20122;-80
2021/05/29 02:23:21;;;;;;;20.40;12.13;;;10.80;99.90;;;;;;4966451;28;20058;-78
2021/05/29 02:25:48;;;;;;;22.10;13.27;;;10.70;99.90;;;;;;4960284;28;20501;-79
2021/05/29 02:28:15;;;;;;;21.88;12.90;;;10.80;99.90;;;;;;4959854;28;20035;-80
2021/05/29 02:30:41;;;;;;;22.33;13.30;;;10.70;99.90;;;;;;4952406;28;20082;-81
2021/05/29 02:33:07;;;;;;;22.30;13.55;;;10.70;99.90;;;;;;4964862;28;20476;-80
2021/05/29 02:35:35;;;;;;;17.63;11.65;;;10.70;99.90;;;;;;4960419;28;20066;-80
2021/05/29 02:38:18;;;;;;;19.30;11.55;;;10.70;99.90;;;;;;4971540;28;20095;-80
2021/05/29 02:40:44;;;;;;;;;;;10.70;99.90;;;;;;4970953;28;20106;-81
2021/05/29 02:43:10;;;;;;;21.90;12.27;;;10.70;99.90;;;;;;4961039;28;20105;-79
2021/05/29 02:45:39;;;;;;;20.20;12.23;;;10.70;99.90;;;;;;4967677;28;20059;-80
2021/05/29 02:48:07;;;;;;;19.35;11.95;;;10.70;99.90;;;;;;4969439;28;20050;-80
2021/05/29 02:50:33;;;;;;;18.60;11.15;;;10.70;99.90;;;;;;4968906;28;20047;-80
2021/05/29 02:52:59;;;;;;;18.95;11.80;;;10.70;99.90;;;;;;4952081;28;20087;-80
2021/05/29 02:55:25;;;;;;;20.40;11.88;;;10.70;99.90;;;;;;4968244;28;20032;-81
2021/05/29 02:57:52;;;;;;;19.48;11.93;;;10.80;99.90;;;;;;4963657;28;20403;-81
2021/05/29 03:00:20;;;;;;;19.90;11.80;;;10.80;99.90;;;;;;4971485;28;20105;-81
2021/05/29 03:02:46;;;;;;;21.63;11.95;;;10.80;99.90;;;;;;4962105;28;20035;-80
2021/05/29 03:05:12;;;;;;;;;;;10.80;99.90;;;;;;4958620;28;20042;-80
2021/05/29 03:07:38;;;;;;;20.08;11.82;;;10.80;99.90;;;;;;4971824;28;19934;-80
2021/05/29 03:10:06;;;;;;;21.67;13.02;;;10.80;99.90;;;;;;4957660;28;20145;-80
2021/05/29 03:12:37;;;;;;;23.73;12.80;;;10.80;99.90;;;;;;4960645;28;20043;-80
2021/05/29 03:15:12;;;;;;;20.25;12.65;;;10.90;99.90;;;;;;4970827;28;20354;-79
2021/05/29 03:17:38;;;;;;;24.83;12.90;;;10.80;99.90;;;;;;4969274;28;20039;-82
2021/05/29 03:20:06;;;;;;;20.13;11.77;;;10.80;99.90;;;;;;4961747;28;20428;-79
2021/05/29 03:22:33;;;;;;;18.35;11.75;;;10.80;99.90;;;;;;4967917;28;20121;-80
2021/05/29 03:24:59;;;;;;;20.73;12.10;;;10.90;99.90;;;;;;4991382;28;20046;-80
2021/05/29 03:27:25;;;;;;;20.00;12.15;;;10.90;99.90;;;;;;4979469;28;20043;-79
2021/05/29 03:29:51;;;;;;;19.95;12.20;;;10.90;99.90;;;;;;4949188;28;20062;-80
2021/05/29 03:32:17;;;;;;;19.38;12.23;;;10.90;99.90;;;;;;4983096;28;20035;-81
2021/05/29 03:34:43;;;;;;;21.35;12.90;;;10.90;99.90;;;;;;4955522;28;20047;-79
2021/05/29 03:37:09;;;;;;;20.00;12.40;;;10.90;99.90;;;;;;4972405;28;20400;-80
2021/05/29 03:39:35;;;;;;;;;;;10.90;99.90;;;;;;4962408;28;20475;-81
2021/05/29 03:42:02;;;;;;;19.50;12.02;;;10.80;99.90;;;;;;4961654;28;20205;-79
2021/05/29 03:44:28;;;;;;;20.58;12.60;;;10.90;99.90;;;;;;4960239;28;20122;-82
2021/05/29 03:46:54;;;;;;;18.35;11.55;;;10.90;99.90;;;;;;4966151;28;20424;-80
2021/05/29 03:49:20;;;;;;;18.20;11.80;;;10.80;99.90;;;;;;4953553;28;20045;-80
2021/05/29 03:51:46;;;;;;;19.17;11.90;;;10.80;99.90;;;;;;4973027;28;20125;-80
2021/05/29 03:54:12;;;;;;;17.30;12.13;;;10.90;99.90;;;;;;4979208;28;20042;-80
2021/05/29 03:56:38;;;;;;;17.92;11.38;;;10.90;99.90;;;;;;4972941;28;20237;-79
2021/05/29 03:59:04;;;;;;;20.90;12.32;;;10.90;99.90;;;;;;4968120;28;20035;-80
2021/05/29 04:01:33;;;;;;;18.27;12.18;;;10.90;99.90;;;;;;4972519;28;20038;-81
2021/05/29 04:03:59;;;;;;;18.83;12.55;;;10.90;99.90;;;;;;4974484;28;20121;-81
2021/05/29 04:06:25;;;;;;;22.55;12.95;;;10.90;99.90;;;;;;4962957;28;20044;-79
2021/05/29 04:08:51;;;;;;;22.40;13.43;;;10.90;99.90;;;;;;4980387;28;20034;-79
2021/05/29 04:11:17;;;;;;;26.30;15.00;;;10.90;99.90;;;;;;4926040;28;20110;-78
2021/05/29 04:13:43;;;;;;;22.02;13.20;;;10.90;99.90;;;;;;4980441;28;20045;-78
2021/05/29 04:16:09;;;;;;;23.67;14.02;;;10.90;99.90;;;;;;4974090;28;20042;-80
2021/05/29 04:18:35;;;;;;;27.13;15.27;;;10.90;99.90;;;;;;4983867;28;20038;-80
2021/05/29 04:21:01;;;;;;;26.55;15.75;;;10.90;99.90;;;;;;4983889;28;20038;-78
2021/05/29 04:23:27;;;;;;;23.73;15.40;;;10.90;99.90;;;;;;4980044;28;20050;-79
2021/05/29 04:25:52;;;;;;;22.60;14.85;;;10.90;99.90;;;;;;4979047;28;20054;-79
2021/05/29 04:28:18;;;;;;;26.02;15.00;;;10.90;99.90;;;;;;4976704;28;20503;-79
2021/05/29 04:30:44;;;;;;;25.50;15.25;;;10.90;99.90;;;;;;4982244;28;20039;-78
2021/05/29 04:33:10;;;;;;;28.70;16.38;;;10.90;99.90;;;;;;4984373;28;20039;-81
2021/05/29 04:35:36;;;;;;;25.45;15.60;;;10.90;99.90;;;;;;4973871;28;20041;-81
2021/05/29 04:38:01;;;;;;;25.08;14.52;;;11.00;99.90;;;;;;4991099;28;20063;-79
2021/05/29 04:40:27;;;;;;;26.38;15.60;;;11.00;99.90;;;;;;4978083;28;20039;-80
2021/05/29 04:42:54;;;;;;;26.38;16.02;;;11.00;99.90;;;;;;4972174;28;20114;-80
2021/05/29 04:45:21;;;;;;;26.55;15.43;;;11.00;99.90;;;;;;4967406;28;20045;-80
2021/05/29 04:47:46;;;;;;;25.88;15.45;;;11.00;99.90;;;;;;4947685;29;20035;-81
2021/05/29 04:50:14;;;;;;;22.15;14.07;;;11.10;99.90;;;;;;4948218;28;20428;-80
2021/05/29 04:52:41;;;;;;;26.30;14.75;;;11.10;99.90;;;;;;4950120;28;20038;-79
2021/05/29 04:55:08;;;;;;;25.65;16.05;;;11.10;99.90;;;;;;4962854;28;20089;-79
2021/05/29 04:57:34;;;;;;;24.27;15.75;;;11.10;99.90;;;;;;4972826;28;20079;-78
2021/05/29 05:00:00;;;;;;;28.95;14.52;;;11.20;99.90;;;;;;4981347;28;20038;-79
2021/05/29 05:02:26;;;;;;;22.17;14.40;;;11.10;99.90;;;;;;4970014;28;20090;-81
2021/05/29 05:04:52;;;;;;;26.02;14.85;;;11.20;99.90;;;;;;4973362;28;20042;-79
2021/05/29 05:07:18;;;;;;;22.33;13.60;;;11.20;99.90;;;;;;4960201;28;20045;-79
2021/05/29 05:09:43;;;;;;;21.17;13.43;;;11.30;99.90;;;;;;4957725;28;20038;-79
2021/05/29 05:12:09;;;;;;;19.60;12.52;;;11.30;99.90;;;;;;4966406;28;20073;-79
2021/05/29 05:14:35;;;;;;;21.27;13.43;;;11.30;99.90;;;;;;4976721;28;20042;-79
2021/05/29 05:17:01;;;;;;;23.30;14.27;;;11.40;99.90;;;;;;4962177;28;20121;-79
2021/05/29 05:19:27;;;;;;;;;;;11.50;99.90;;;;;;4978197;28;20073;-79
2021/05/29 05:21:53;;;;;;;20.50;11.95;;;11.50;99.90;;;;;;4993419;28;20393;-80
2021/05/29 05:24:19;;;;;;;;;;;11.60;99.90;;;;;;5001093;28;20069;-80
2021/05/29 05:26:45;;;;;;;18.85;11.75;;;11.60;99.90;;;;;;4985996;28;20364;-79
2021/05/29 05:29:11;;;;;;;16.95;10.57;;;11.70;99.90;;;;;;4975647;28;20469;-80
2021/05/29 05:31:37;;;;;;;15.90;9.35;;;11.70;99.90;;;;;;4965500;28;20074;-81
2021/05/29 05:34:08;;;;;;;14.45;9.27;;;11.70;99.90;;;;;;4980555;28;20083;-80
2021/05/29 05:36:36;;;;;;;14.10;8.77;;;11.70;99.90;;;;;;5000648;28;20042;-82
2021/05/29 05:39:03;;;;;;;14.38;9.60;;;11.70;99.90;;;;;;4994406;28;20114;-79
2021/05/29 05:41:28;;;;;;;12.88;8.90;;;11.80;99.90;;;;;;4994596;28;20118;-81
2021/05/29 05:43:54;;;;;;;12.98;8.43;;;11.80;99.90;;;;;;4993256;28;20441;-80
2021/05/29 05:46:21;;;;;;;15.18;9.00;;;11.80;99.90;;;;;;4957781;28;20058;-81
2021/05/29 05:48:46;;;;;;;16.60;9.93;;;11.80;99.90;;;;;;4957773;28;20138;-80
2021/05/29 05:51:12;;;;;;;19.45;11.70;;;11.90;99.90;;;;;;4957519;28;20078;-81
2021/05/29 05:53:39;;;;;;;18.35;11.23;;;12.00;99.90;;;;;;4977658;28;20057;-80
2021/05/29 05:56:06;;;;;;;14.32;10.00;;;12.00;99.90;;;;;;4961063;28;20038;-80
2021/05/29 05:58:37;;;;;;;17.20;10.85;;;12.00;99.90;;;;;;4990848;28;20061;-82
2021/05/29 06:01:05;;;;;;;16.02;9.73;;;12.10;99.90;;;;;;4980658;28;20035;-80
2021/05/29 06:03:31;;;;;;;15.55;10.20;;;12.10;99.90;;;;;;4958043;28;20035;-79
2021/05/29 06:05:57;;;;;;;17.73;10.77;;;12.20;99.90;;;;;;4962178;28;20042;-79
2021/05/29 06:08:23;;;;;;;17.50;11.52;;;12.20;99.90;;;;;;4954095;28;20045;-78
2021/05/29 06:10:50;;;;;;;16.13;10.55;;;12.20;99.90;;;;;;4965297;28;20135;-80
2021/05/29 06:21:30;;;;;;;17.15;10.70;;;12.40;99.90;;;;;;4971584;28;20038;-79
2021/05/29 06:23:56;;;;;;;17.48;10.77;;;12.40;99.90;;;;;;4994108;28;20058;-80
2021/05/29 06:26:23;;;;;;;15.73;10.88;;;12.40;99.90;;;;;;4976401;28;20042;-79
2021/05/29 06:28:48;;;;;;;;;;;12.30;99.90;;;;;;4982637;28;20065;-80
2021/05/29 06:31:14;;;;;;;18.38;11.05;;;12.30;99.90;;;;;;4967810;28;19918;-80
2021/05/29 06:33:40;;;;;;;16.38;10.23;;;12.30;99.90;;;;;;4962324;28;20488;-79
2021/05/29 06:36:06;;;;;;;19.35;10.77;;;12.40;99.90;;;;;;4974866;28;20031;-79
2021/05/29 06:38:31;;;;;;;15.27;10.95;;;12.40;99.90;;;;;;4975440;28;20051;-81
2021/05/29 06:40:57;;;;;;;18.52;10.60;;;12.40;99.90;;;;;;4974634;28;20031;-80
2021/05/29 06:43:23;;;;;;;16.17;9.65;;;12.50;99.90;;;;;;4957886;28;20296;-80
2021/05/29 06:45:50;;;;;;;17.15;9.13;;;12.50;99.90;;;;;;4975981;28;20510;-80
2021/05/29 06:48:16;;;;;;;12.27;7.82;;;12.60;99.90;;;;;;4939901;28;20050;-79
2021/05/29 06:50:52;;;;;;;11.10;7.35;;;12.60;99.90;;;;;;4951187;28;20038;-80
2021/05/29 06:53:23;;;;;;;14.57;8.18;;;12.70;99.90;;;;;;4956482;28;20538;-79
2021/05/29 06:58:55;;;;;;;14.82;8.20;;;12.80;99.90;;;;;;4981776;28;20038;-79
2021/05/29 07:01:23;;;;;;;13.00;7.22;;;12.90;99.90;;;;;;4979618;28;20055;-81
2021/05/29 07:03:50;;;;;;;14.52;8.10;;;13.10;99.90;;;;;;4976415;28;20125;-81
2021/05/29 07:06:17;;;;;;;12.38;7.90;;;13.30;99.90;;;;;;4952752;28;20034;-80
2021/05/29 07:08:43;;;;;;;11.02;7.18;;;13.50;99.90;;;;;;4974140;28;20035;-79
2021/05/29 07:11:09;;;;;;;;;;;13.60;99.90;;;;;;4956731;28;20047;-79
2021/05/29 07:13:34;;;;;;;11.07;7.97;;;13.70;99.90;;;;;;4985404;28;19925;-80
2021/05/29 07:16:01;;;;;;;11.00;7.65;;;13.80;99.90;;;;;;4956076;28;20047;-81
2021/05/29 07:18:31;;;;;;;12.30;8.32;;;13.90;99.90;;;;;;4980640;28;20061;-80
2021/05/29 07:20:57;;;;;;;14.82;8.48;;;14.00;99.90;;;;;;4946843;28;20050;-80
2021/05/29 07:23:23;;;;;;;12.48;7.45;;;14.10;99.90;;;;;;4948247;28;20046;-79
2021/05/29 07:25:49;;;;;;;14.25;8.02;;;14.30;99.90;;;;;;4992889;28;20125;-81
2021/05/29 07:28:16;;;;;;;15.23;8.30;;;14.40;99.90;;;;;;4976640;28;20062;-80
2021/05/29 07:30:42;;;;;;;14.10;8.32;;;14.50;99.90;;;;;;4974262;28;20492;-83
2021/05/29 07:33:08;;;;;;;16.23;8.57;;;14.60;99.90;;;;;;4985523;28;20092;-80
2021/05/29 07:35:34;;;;;;;12.18;7.38;;;14.60;99.90;;;;;;4993480;28;20038;-80
2021/05/29 07:38:00;;;;;;;12.55;7.43;;;14.70;99.90;;;;;;4968408;28;20154;-80
2021/05/29 07:40:27;;;;;;;10.95;7.63;;;14.60;99.90;;;;;;4981832;28;20034;-79
2021/05/29 07:42:52;;;;;;;9.73;5.70;;;14.60;99.90;;;;;;4953068;28;20046;-80
2021/05/29 07:45:18;;;;;;;13.02;6.53;;;14.60;99.90;;;;;;4986438;28;20061;-81
2021/05/29 07:47:44;;;;;;;9.90;7.00;;;14.50;99.90;;;;;;4978041;28;20126;-78
2021/05/29 07:50:11;;;;;;;11.55;6.60;;;14.50;99.90;;;;;;4963768;28;20070;-80
2021/05/29 07:52:38;;;;;;;11.30;6.47;;;14.50;99.90;;;;;;4974288;28;20046;-79
2021/05/29 07:55:06;;;;;;;12.23;6.80;;;14.40;99.90;;;;;;4987971;28;20043;-80
2021/05/29 07:57:33;;;;;;;9.07;5.60;;;14.40;99.90;;;;;;4993141;28;20038;-80
2021/05/29 07:59:59;;;;;;;11.55;6.78;;;14.30;99.90;;;;;;4992783;28;20375;-80
2021/05/29 08:02:25;;;;;;;10.55;6.40;;;14.20;99.90;;;;;;4967580;28;20039;-82
2021/05/29 08:04:51;;;;;;;10.50;6.38;;;14.20;99.90;;;;;;4987183;28;20037;-78
2021/05/29 08:07:17;;;;;;;11.90;6.50;;;14.20;99.90;;;;;;4987020;28;20117;-78
2021/05/29 08:09:43;;;;;;;10.73;6.13;;;14.20;99.90;;;;;;4985895;28;20429;-80
2021/05/29 08:12:09;;;;;;;10.50;5.88;;;14.10;99.90;;;;;;4971243;28;20488;-80
2021/05/29 08:14:35;;;;;;;;;;;14.10;99.90;;;;;;4987904;28;20121;-80
2021/05/29 08:17:04;;;;;;;11.45;6.43;;;14.00;99.90;;;;;;4991733;28;19929;-81
2021/05/29 08:19:29;;;;;;;9.88;5.43;;;14.00;99.90;;;;;;4993648;28;20047;-82
2021/05/29 08:21:55;;;;;;;8.20;5.28;;;14.00;99.90;;;;;;4985180;28;20042;-80
2021/05/29 08:24:21;;;;;;;8.02;5.13;;;14.00;99.90;;;;;;4980592;28;20503;-80
2021/05/29 08:26:47;;;;;;;8.35;5.10;;;14.10;99.90;;;;;;4940667;28;20353;-81
2021/05/29 08:29:14;;;;;;;7.18;4.63;;;14.30;99.90;;;;;;4974484;28;20064;-81
2021/05/29 08:31:42;;;;;;;6.30;4.63;;;14.40;99.90;;;;;;4979248;28;20039;-81
2021/05/29 08:34:09;;;;;;;7.53;4.70;;;14.50;99.90;;;;;;4959038;28;20045;-81
2021/05/29 08:36:37;;;;;;;6.88;4.72;;;14.70;99.90;;;;;;4984743;28;20038;-80
2021/05/29 08:39:05;;;;;;;8.45;5.15;;;15.00;99.90;;;;;;4996185;28;20046;-80
2021/05/29 08:41:31;;;;;;;7.72;4.72;;;15.20;99.90;;;;;;4977746;28;20045;-80
2021/05/29 08:43:57;;;;;;;8.30;4.50;;;15.30;99.90;;;;;;4993361;28;20058;-80
2021/05/29 08:46:24;;;;;;;8.75;5.07;;;15.40;99.90;;;;;;4986197;28;20116;-81
2021/05/29 08:48:52;;;;;;;9.93;5.30;;;15.40;99.90;;;;;;4982996;28;20055;-82
2021/05/29 08:51:19;;;;;;;8.90;5.38;;;15.50;99.90;;;;;;4968310;28;20122;-80
2021/05/29 08:53:45;;;;;;;6.03;4.45;;;15.70;99.90;;;;;;4976146;28;20401;-79
2021/05/29 08:56:12;;;;;;;7.90;4.47;;;15.90;99.90;;;;;;4988721;28;20101;-80
2021/05/29 08:58:39;;;;;;;11.57;4.97;;;16.00;99.90;;;;;;4961704;28;20053;-85
2021/05/29 09:01:06;;;;;;;7.95;5.05;;;16.00;99.90;;;;;;4975107;28;20038;-80
2021/05/29 09:03:39;;;;;;;9.15;5.20;;;16.20;99.90;;;;;;4958334;28;20062;-80
2021/05/29 09:06:05;;;;;;;9.80;4.60;;;16.30;99.90;;;;;;4976449;28;20043;-81
2021/05/29 09:08:31;;;;;;;;;;;16.40;99.90;;;;;;4958727;28;20038;-78
2021/05/29 09:10:59;;;;;;;6.35;4.68;;;16.40;99.90;;;;;;4976145;28;19945;-80
2021/05/29 09:13:30;;;;;;;7.05;4.55;;;16.40;99.90;;;;;;4987915;28;20062;-80
2021/05/29 09:16:02;;;;;;;7.35;4.93;;;16.40;99.20;;;;;;4975711;28;20389;-81
2021/05/29 09:18:45;;;;;;;9.07;4.78;;;16.20;99.50;;;;;;4958531;28;20074;-80
2021/05/29 09:21:21;;;;;;;6.03;4.38;;;16.00;99.90;;;;;;4983923;28;20055;-78
2021/05/29 09:23:48;;;;;;;;;;;16.10;99.40;;;;;;4997333;28;20058;-81
2021/05/29 09:26:14;;;;;;;12.68;4.80;;;16.10;99.90;;;;;;4990575;28;20311;-80
2021/05/29 09:28:42;;;;;;;8.32;5.57;;;16.20;99.40;;;;;;4987193;28;20090;-79
2021/05/29 09:31:13;;;;;;;6.65;4.97;;;16.30;99.10;;;;;;4973662;28;20038;-78
2021/05/29 09:33:39;;;;;;;7.78;4.93;;;16.40;99.40;;;;;;4977784;28;20046;-79
2021/05/29 09:36:09;;;;;;;;;;;16.40;99.60;;;;;;4990355;28;20034;-79
2021/05/29 09:38:43;;;;;;;8.85;5.32;;;16.40;99.80;;;;;;4987471;28;19933;-80
2021/05/29 09:41:30;;;;;;;7.05;4.93;;;16.30;99.60;;;;;;4965414;28;20046;-81
2021/05/29 09:44:05;;;;;;;7.47;5.28;;;16.20;99.00;;;;;;4998413;28;20042;-80
2021/05/29 09:46:50;;;;;;;8.32;5.05;;;16.10;99.80;;;;;;4985914;28;20117;-77
2021/05/29 09:49:16;;;;;;;8.20;5.10;;;16.10;99.90;;;;;;4975849;28;20038;-79
2021/05/29 09:51:42;;;;;;;7.60;4.65;;;16.00;99.90;;;;;;4994854;28;20494;-80
2021/05/29 09:54:10;;;;;;;8.32;5.05;;;16.00;99.90;;;;;;4938905;28;20039;-79
2021/05/29 09:56:42;;;;;;;6.80;5.25;;;16.10;99.90;;;;;;4988601;28;20074;-79
2021/05/29 09:59:10;;;;;;;7.22;4.55;;;16.10;99.90;;;;;;4987300;28;20138;-82
2021/05/29 10:01:49;;;;;;;8.85;4.82;;;16.10;99.90;;;;;;4971013;28;20062;-80
2021/05/29 10:04:37;;;;;;;8.40;4.90;;;16.30;99.90;;;;;;4997367;28;20117;-79
2021/05/29 10:07:09;;;;;;;6.28;4.75;;;16.30;99.70;;;;;;4964939;28;20620;-80
2021/05/29 10:09:36;;;;;;;6.72;4.68;;;16.30;99.40;;;;;;4987781;28;20125;-80
2021/05/29 10:12:03;;;;;;;10.25;4.90;;;16.30;99.80;;;;;;4938723;28;20041;-80
2021/05/29 10:14:30;;;;;;;8.05;5.35;;;16.30;99.40;;;;;;4974631;28;20178;-81
2021/05/29 10:16:58;;;;;;;7.85;5.28;;;16.50;99.20;;;;;;4974604;28;20078;-79
2021/05/29 10:19:25;;;;;;;7.65;5.20;;;16.50;99.20;;;;;;4987653;28;20507;-77
2021/05/29 10:21:52;;;;;;;6.30;4.82;;;16.40;98.80;;;;;;4975294;28;20054;-79
2021/05/29 10:24:21;;;;;;;8.60;5.28;;;16.30;99.00;;;;;;4987560;28;20109;-81
2021/05/29 10:26:49;;;;;;;9.77;5.30;;;16.20;99.20;;;;;;4987106;28;20436;-81
2021/05/29 10:29:16;;;;;;;7.40;5.10;;;15.90;99.60;;;;;;4984694;28;20456;-82
2021/05/29 10:31:43;;;;;;;7.28;5.07;;;15.70;99.90;;;;;;4965418;28;20392;-81
2021/05/29 10:34:10;;;;;;;6.88;5.15;;;15.60;99.90;;;;;;4981337;28;20101;-81
2021/05/29 10:36:45;;;;;;;8.23;5.70;;;15.70;99.90;;;;;;4960668;28;20053;-79
2021/05/29 10:39:23;;;;;;;9.73;5.28;;;16.00;99.80;;;;;;4977967;28;20121;-79
2021/05/29 10:42:04;;;;;;;8.93;5.63;;;16.10;99.60;;;;;;4976712;28;20101;-77
2021/05/29 10:44:42;;;;;;;7.93;5.50;;;16.00;99.60;;;;;;4970128;28;20089;-81
2021/05/29 10:47:12;;;;;;;6.15;5.05;;;15.90;99.70;;;;;;4976402;28;20042;-79
2021/05/29 10:49:47;;;;;;;6.47;4.90;;;15.90;99.90;;;;;;4983638;28;20035;-81
2021/05/29 10:52:35;;;;;;;9.43;5.13;;;16.00;99.50;;;;;;4987736;28;20063;-84
2021/05/29 10:55:20;;;;;;;9.93;5.05;;;16.20;99.80;;;;;;4980985;28;20054;-80
2021/05/29 10:57:56;;;;;;;6.85;4.95;;;16.20;99.20;;;;;;4990509;28;20051;-80
2021/05/29 11:03:25;;;;;;;7.35;5.25;;;16.00;99.10;;;;;;4987893;28;20049;-80
2021/05/29 11:06:00;;;;;;;8.65;5.35;;;16.10;98.90;;;;;;4963387;28;20107;-78
2021/05/29 11:08:45;;;;;;;7.25;5.60;;;16.10;98.70;;;;;;4981583;28;20046;-80
2021/05/29 11:11:41;;;;;;;7.93;5.60;;;16.00;98.60;;;;;;4976195;28;20042;-79
2021/05/29 11:14:12;;;;;;;8.82;5.50;;;15.90;98.70;;;;;;4974299;28;20042;-81
2021/05/29 11:16:56;;;;;;;6.70;4.90;;;15.80;98.70;;;;;;4992824;28;20483;-81
2021/05/29 11:19:26;;;;;;;8.70;6.10;;;15.70;98.90;;;;;;4998347;28;20046;-81
2021/05/29 11:22:08;;;;;;;7.80;5.88;;;15.60;99.40;;;;;;4982641;28;20069;-82
2021/05/29 11:24:39;;;;;;;7.95;6.00;;;15.60;99.30;;;;;;4986329;28;20049;-80
2021/05/29 11:27:07;;;;;;;7.40;5.60;;;15.50;99.20;;;;;;4991480;28;20039;-79
2021/05/29 11:29:49;;;;;;;8.27;5.70;;;15.50;99.30;;;;;;4991496;28;20034;-79
2021/05/29 11:32:15;;;;;;;9.10;5.63;;;15.60;99.90;;;;;;4980403;28;20403;-80
2021/05/29 11:34:44;;;;;;;8.90;6.32;;;15.80;98.80;;;;;;4981659;28;20049;-80
2021/05/29 11:37:14;;;;;;;9.15;5.97;;;15.70;98.20;;;;;;4976215;28;20403;-77
2021/05/29 11:39:55;;;;;;;9.35;6.53;;;15.60;98.40;;;;;;4985439;28;20046;-81
2021/05/29 11:42:20;;;;;;;9.40;5.63;;;15.60;99.00;;;;;;4952623;28;20108;-79
2021/05/29 11:44:46;;;;;;;8.30;5.90;;;15.70;99.40;;;;;;4956014;28;20043;-80
2021/05/29 11:47:16;;;;;;;8.73;6.55;;;15.90;99.40;;;;;;4936886;28;20043;-80
2021/05/29 11:49:42;;;;;;;9.23;5.47;;;15.90;98.70;;;;;;4957509;28;20133;-81
2021/05/29 11:52:08;;;;;;;;;;;15.90;98.90;;;;;;4976622;28;20039;-79
2021/05/29 11:54:37;;;;;;;8.07;6.47;;;15.90;98.90;;;;;;4979466;28;19968;-82
2021/05/29 11:57:05;;;;;;;8.63;5.95;;;15.80;98.60;;;;;;4976747;28;20088;-78
2021/05/29 11:59:32;;;;;;;10.40;5.57;;;15.80;98.50;;;;;;4981347;28;20043;-81
2021/05/29 12:01:58;;;;;;;9.70;5.93;;;15.80;98.40;;;;;;4973188;28;20042;-80
2021/05/29 12:04:29;;;;;;;;;;;16.10;98.20;;;;;;4983289;28;20038;-81
2021/05/29 12:07:02;;;;;;;7.85;6.00;;;16.30;97.80;;;;;;4986945;28;20287;-81
2021/05/29 12:09:35;;;;;;;10.10;6.05;;;16.60;97.70;;;;;;4974972;28;20038;-81
2021/05/29 12:12:07;;;;;;;8.77;5.80;;;16.70;97.70;;;;;;4991610;28;20039;-80
2021/05/29 12:14:41;;;;;;;7.50;5.80;;;16.80;96.70;;;;;;4955654;28;20047;-80
2021/05/29 12:17:12;;;;;;;8.23;5.75;;;16.90;96.60;;;;;;4979809;28;20134;-80
2021/05/29 12:19:55;;;;;;;7.47;5.60;;;16.80;96.00;;;;;;4958268;28;20046;-79
2021/05/29 12:22:26;;;;;;;7.82;6.35;;;16.80;95.80;;;;;;4979065;28;20051;-79
2021/05/29 12:25:07;;;;;;;9.68;6.20;;;16.60;95.90;;;;;;4973601;28;20079;-83
2021/05/29 12:27:41;;;;;;;7.57;5.47;;;16.50;96.10;;;;;;4982351;28;20452;-78
2021/05/29 12:30:10;;;;;;;9.23;6.63;;;16.40;95.90;;;;;;4965439;28;20448;-83
2021/05/29 12:32:42;;;;;;;8.65;5.72;;;16.20;96.10;;;;;;4970322;28;20034;-80
2021/05/29 12:35:10;;;;;;;8.23;6.20;;;16.00;96.90;;;;;;4993287;28;20518;-82
2021/05/29 12:37:37;;;;;;;7.85;5.80;;;15.90;97.10;;;;;;4961950;28;20046;-84
2021/05/29 12:40:12;;;;;;;8.48;6.13;;;15.80;97.20;;;;;;4992170;28;20038;-83
2021/05/29 12:42:48;;;;;;;7.20;5.57;;;15.70;97.50;;;;;;4957142;28;20089;-82
2021/05/29 12:45:17;;;;;;;6.80;5.43;;;15.80;97.90;;;;;;4986178;28;20046;-81
2021/05/29 12:48:01;;;;;;;8.20;5.93;;;15.90;97.90;;;;;;4985765;28;20133;-82
2021/05/29 12:50:37;;;;;;;7.97;5.80;;;16.00;97.80;;;;;;4962180;28;20038;-79
2021/05/29 12:53:12;;;;;;;7.88;6.28;;;16.20;96.80;;;;;;4987995;28;20031;-82
2021/05/29 12:55:38;;;;;;;7.35;5.70;;;16.20;96.80;;;;;;4972983;28;20475;-78
2021/05/29 12:58:24;;;;;;;8.85;6.18;;;16.20;97.10;;;;;;4979911;28;20062;-80